Time;durP1;ratioP1;P1;durP2;ratioP2;P2;SDS_P1;SDS_P2;PMS_P1;PMS_P2;Temp;Humidity;BMP_temperature;BMP_pressure;BME280_temperature;BME280_humidity;BME280_pressure;Samples;Min_cycle;Max_cycle;Signal;HPM_P1;HPM_P2
2022/05/28 00:00:40;;;;;;;12.18;4.32;;;27.70;96.70;;;;;;5060197;28;20082;-80
2022/05/28 00:03:10;;;;;;;14.73;4.05;;;27.60;96.70;;;;;;5056684;28;20044;-80
2022/05/28 00:05:40;;;;;;;14.52;3.85;;;27.60;96.70;;;;;;5058487;28;20123;-81
2022/05/28 00:08:08;;;;;;;8.23;3.72;;;27.60;96.70;;;;;;5058204;28;20581;-80
2022/05/28 00:10:37;;;;;;;13.43;4.53;;;27.60;96.70;;;;;;5053960;28;20033;-80
2022/05/28 00:13:05;;;;;;;17.83;4.00;;;27.50;96.70;;;;;;5052646;28;20604;-80
2022/05/28 00:15:33;;;;;;;15.20;4.72;;;27.40;96.70;;;;;;5051568;28;20124;-79
2022/05/28 00:18:02;;;;;;;13.85;4.43;;;27.40;96.70;;;;;;5055041;28;20045;-81
2022/05/28 00:20:32;;;;;;;13.43;4.75;;;27.30;96.70;;;;;;5053133;28;20139;-80
2022/05/28 00:23:02;;;;;;;15.50;4.25;;;27.20;96.70;;;;;;5056942;28;20226;-80
2022/05/28 00:25:31;;;;;;;15.32;4.15;;;27.20;96.70;;;;;;5059349;28;20095;-80
2022/05/28 00:27:59;;;;;;;16.10;4.63;;;27.10;96.70;;;;;;5054344;28;20040;-80
2022/05/28 00:30:28;;;;;;;14.70;4.32;;;26.90;96.70;;;;;;5062910;28;20124;-80
2022/05/28 00:32:56;;;;;;;15.60;4.63;;;26.80;96.70;;;;;;5037246;28;20131;-80
2022/05/28 00:35:24;;;;;;;12.63;3.80;;;26.80;96.70;;;;;;5055868;28;20487;-80
2022/05/28 00:37:54;;;;;;;9.45;4.03;;;26.70;96.70;;;;;;5053920;28;20041;-80
2022/05/28 00:40:24;;;;;;;14.32;3.83;;;26.70;96.70;;;;;;5044976;28;20131;-80
2022/05/28 00:42:57;;;;;;;16.25;4.07;;;26.60;96.70;;;;;;5051794;28;20240;-80
2022/05/28 00:45:26;;;;;;;11.60;3.60;;;26.40;96.70;;;;;;5043869;28;20106;-80
2022/05/28 00:47:56;;;;;;;14.48;4.28;;;26.40;96.70;;;;;;5056188;28;20127;-80
2022/05/28 00:50:25;;;;;;;13.98;4.57;;;26.40;96.70;;;;;;5060233;28;20049;-80
2022/05/28 00:52:55;;;;;;;15.05;3.92;;;26.40;96.70;;;;;;5054434;28;20486;-81
2022/05/28 00:55:23;;;;;;;9.85;3.60;;;26.50;96.70;;;;;;5050518;28;20036;-80
2022/05/28 00:57:52;;;;;;;12.60;4.72;;;26.60;96.70;;;;;;5056401;28;20687;-80
2022/05/28 01:00:22;;;;;;;12.30;3.80;;;26.60;96.70;;;;;;5054090;28;20118;-80
2022/05/28 01:02:54;;;;;;;14.77;4.50;;;26.50;96.70;;;;;;5053907;28;20048;-80
2022/05/28 01:05:27;;;;;;;10.55;3.13;;;26.40;96.70;;;;;;5039499;28;20046;-79
2022/05/28 01:08:06;;;;;;;11.38;4.10;;;26.50;96.70;;;;;;5057263;28;20041;-80
2022/05/28 01:10:42;;;;;;;15.93;4.45;;;26.40;96.70;;;;;;5048225;28;20122;-80
2022/05/28 01:13:16;;;;;;;12.88;4.28;;;26.40;96.70;;;;;;5054040;28;20053;-80
2022/05/28 01:16:30;;;;;;;11.13;3.55;;;26.50;96.70;;;;;;5055373;28;20040;-79
2022/05/28 01:19:06;;;;;;;10.90;3.72;;;26.60;96.70;;;;;;5051058;28;20754;-79
2022/05/28 01:21:42;;;;;;;9.23;4.40;;;26.50;96.70;;;;;;5039076;28;20131;-79
2022/05/28 01:24:20;;;;;;;12.48;4.00;;;26.40;96.70;;;;;;5049546;28;20541;-78
2022/05/28 01:26:56;;;;;;;11.20;4.00;;;26.30;96.70;;;;;;5052449;28;20059;-79
2022/05/28 01:29:25;;;;;;;;;;;26.40;96.70;;;;;;5056132;28;20406;-80
2022/05/28 01:31:56;;;;;;;9.48;3.45;;;26.50;96.70;;;;;;5055259;28;20019;-80
2022/05/28 01:34:26;;;;;;;12.50;3.65;;;26.50;96.70;;;;;;5051113;28;20539;-79
2022/05/28 01:36:56;;;;;;;12.40;4.10;;;26.40;96.70;;;;;;5052212;28;20127;-79
2022/05/28 01:39:25;;;;;;;10.43;3.80;;;26.20;96.70;;;;;;5041544;28;20048;-79
2022/05/28 01:41:55;;;;;;;13.63;3.63;;;26.20;96.70;;;;;;5054188;28;20585;-79
2022/05/28 01:44:24;;;;;;;10.93;3.72;;;26.20;96.70;;;;;;5059246;28;20132;-80
2022/05/28 01:46:53;;;;;;;10.48;3.97;;;26.20;96.70;;;;;;5054512;28;20463;-79
2022/05/28 01:49:23;;;;;;;9.82;3.75;;;26.30;96.70;;;;;;5053163;28;20045;-80
2022/05/28 01:51:55;;;;;;;12.05;4.35;;;26.30;96.70;;;;;;5056786;28;20419;-79
2022/05/28 01:54:25;;;;;;;10.82;3.45;;;26.10;96.70;;;;;;5057903;28;20045;-79
2022/05/28 01:56:56;;;;;;;6.53;4.13;;;26.00;96.70;;;;;;5055102;28;20091;-79
2022/05/28 01:59:27;;;;;;;15.73;3.97;;;25.90;96.70;;;;;;5054446;28;20044;-79
2022/05/28 02:01:59;;;;;;;11.70;3.20;;;25.80;96.70;;;;;;5054221;28;20052;-78
2022/05/28 02:04:30;;;;;;;11.52;4.15;;;25.80;96.70;;;;;;5054515;28;20036;-79
2022/05/28 02:06:58;;;;;;;9.48;3.58;;;25.90;96.70;;;;;;5051858;28;20040;-79
2022/05/28 02:09:30;;;;;;;11.98;3.70;;;25.90;96.70;;;;;;5058366;28;20137;-79
2022/05/28 02:12:09;;;;;;;9.95;3.38;;;25.90;96.70;;;;;;5051427;28;20640;-80
2022/05/28 02:14:48;;;;;;;11.95;3.72;;;25.80;96.70;;;;;;5036000;28;20525;-79
2022/05/28 02:17:22;;;;;;;11.63;3.90;;;25.90;96.70;;;;;;5058287;28;20631;-79
2022/05/28 02:20:02;;;;;;;10.20;3.90;;;25.90;96.70;;;;;;5056000;28;20508;-79
2022/05/28 02:22:39;;;;;;;11.27;3.65;;;25.90;96.70;;;;;;5052151;28;20045;-80
2022/05/28 02:25:11;;;;;;;12.93;3.47;;;25.80;96.70;;;;;;5053371;28;20044;-81
2022/05/28 02:27:42;;;;;;;10.88;3.35;;;25.80;96.70;;;;;;5050653;28;20580;-79
2022/05/28 02:30:11;;;;;;;9.25;3.97;;;25.80;96.70;;;;;;5063593;28;20452;-80
2022/05/28 02:32:39;;;;;;;9.65;3.78;;;25.60;96.70;;;;;;5054195;28;20067;-79
2022/05/28 02:35:08;;;;;;;14.35;4.57;;;25.50;96.70;;;;;;5052298;28;20175;-80
2022/05/28 02:37:37;;;;;;;12.20;4.03;;;25.40;96.70;;;;;;5056567;28;20068;-79
2022/05/28 02:40:06;;;;;;;11.38;3.50;;;25.30;96.70;;;;;;5057274;28;20361;-80
2022/05/28 02:42:34;;;;;;;10.68;3.85;;;25.20;96.70;;;;;;5037476;28;20049;-80
2022/05/28 02:45:05;;;;;;;11.95;3.17;;;25.20;96.70;;;;;;5053805;28;20967;-80
2022/05/28 02:47:34;;;;;;;9.90;3.88;;;25.30;96.70;;;;;;5041315;28;20103;-79
2022/05/28 02:50:03;;;;;;;8.35;3.22;;;25.20;96.70;;;;;;5058965;28;20041;-80
2022/05/28 02:52:31;;;;;;;9.45;3.65;;;25.20;96.70;;;;;;5058954;28;20044;-80
2022/05/28 02:54:59;;;;;;;11.07;4.00;;;25.20;96.70;;;;;;5039993;28;20403;-79
2022/05/28 02:57:28;;;;;;;11.15;3.60;;;25.00;96.70;;;;;;5059134;28;20048;-80
2022/05/28 02:59:57;;;;;;;12.07;4.22;;;25.00;96.70;;;;;;5056355;28;20049;-79
2022/05/28 03:02:28;;;;;;;16.83;4.03;;;25.10;96.70;;;;;;5044072;28;20064;-79
2022/05/28 03:04:56;;;;;;;12.07;4.10;;;25.10;96.70;;;;;;5059094;28;20053;-79
2022/05/28 03:07:24;;;;;;;9.50;3.85;;;25.00;96.70;;;;;;5059070;28;20096;-80
2022/05/28 03:09:53;;;;;;;8.75;3.67;;;25.00;96.70;;;;;;5058814;28;20124;-79
2022/05/28 03:12:21;;;;;;;8.50;3.78;;;25.00;96.70;;;;;;5032857;28;20091;-80
2022/05/28 03:14:49;;;;;;;17.55;4.10;;;25.10;96.70;;;;;;5053854;28;20047;-79
2022/05/28 03:17:17;;;;;;;12.65;4.05;;;25.10;96.70;;;;;;5040691;28;20033;-79
2022/05/28 03:20:01;;;;;;;10.43;3.45;;;25.10;96.70;;;;;;5057792;28;20041;-79
2022/05/28 03:22:29;;;;;;;11.20;3.53;;;25.20;96.70;;;;;;5000206;28;20065;-80
2022/05/28 03:24:58;;;;;;;11.52;4.32;;;25.10;96.70;;;;;;4991368;28;20144;-80
2022/05/28 03:27:26;;;;;;;13.45;4.18;;;25.00;96.70;;;;;;5000131;28;20136;-79
2022/05/28 03:29:54;;;;;;;10.10;3.63;;;25.00;96.70;;;;;;5012822;28;20049;-79
2022/05/28 03:32:22;;;;;;;10.52;3.47;;;25.00;96.70;;;;;;4982993;28;20046;-80
2022/05/28 03:34:52;;;;;;;10.60;3.58;;;24.90;96.70;;;;;;4997523;28;20053;-78
2022/05/28 03:37:20;;;;;;;8.35;3.55;;;24.80;96.70;;;;;;5002917;28;20049;-79
2022/05/28 03:39:48;;;;;;;12.45;4.10;;;24.80;96.70;;;;;;5000053;28;20199;-80
2022/05/28 03:42:16;;;;;;;13.80;4.10;;;24.80;96.70;;;;;;4982854;28;20045;-79
2022/05/28 03:44:44;;;;;;;13.25;4.10;;;24.80;96.70;;;;;;4992423;28;20056;-79
2022/05/28 03:47:12;;;;;;;9.27;3.50;;;24.80;96.70;;;;;;4997405;28;20073;-79
2022/05/28 03:49:43;;;;;;;8.70;3.90;;;24.60;96.70;;;;;;4980450;28;21258;-79
2022/05/28 03:52:14;;;;;;;10.43;3.75;;;24.60;96.70;;;;;;4994914;28;20104;-79
2022/05/28 03:54:45;;;;;;;12.95;3.55;;;24.50;96.70;;;;;;4995283;28;20048;-78
2022/05/28 03:57:24;;;;;;;11.77;4.07;;;24.50;96.70;;;;;;5007370;28;20046;-79
2022/05/28 03:59:52;;;;;;;12.60;4.38;;;24.60;96.70;;;;;;5024168;28;20140;-79
2022/05/28 04:02:20;;;;;;;15.45;3.97;;;24.60;96.70;;;;;;5051147;28;20529;-79
2022/05/28 04:04:48;;;;;;;9.27;3.85;;;24.60;96.70;;;;;;5052948;28;20105;-79
2022/05/28 04:07:18;;;;;;;14.07;4.28;;;24.60;96.70;;;;;;5060767;28;20087;-79
2022/05/28 04:09:46;;;;;;;9.85;4.07;;;24.60;96.70;;;;;;5045577;28;20447;-79
2022/05/28 04:12:14;;;;;;;13.18;4.05;;;24.70;96.70;;;;;;5051139;28;20091;-79
2022/05/28 04:14:44;;;;;;;12.50;4.05;;;24.50;96.70;;;;;;5053918;28;20045;-79
2022/05/28 04:17:12;;;;;;;10.05;3.85;;;24.60;96.70;;;;;;5054840;28;20060;-79
2022/05/28 04:19:40;;;;;;;12.43;3.85;;;24.50;96.70;;;;;;5042485;28;20518;-80
2022/05/28 04:22:08;;;;;;;6.95;4.00;;;24.60;96.70;;;;;;5054428;28;20111;-80
2022/05/28 04:24:38;;;;;;;7.60;3.80;;;24.60;96.70;;;;;;5061474;28;20166;-79
2022/05/28 04:27:06;;;;;;;11.23;4.40;;;24.60;96.70;;;;;;5051966;28;20046;-80
2022/05/28 04:29:34;;;;;;;9.38;3.65;;;24.60;96.70;;;;;;5057326;28;20036;-79
2022/05/28 04:32:02;;;;;;;10.35;4.18;;;24.70;96.70;;;;;;5055704;28;20048;-78
2022/05/28 04:34:30;;;;;;;11.52;4.00;;;24.80;96.70;;;;;;5056320;28;20123;-80
2022/05/28 04:36:58;;;;;;;10.38;3.60;;;24.70;96.70;;;;;;5052215;28;20456;-80
2022/05/28 04:39:27;;;;;;;12.10;3.55;;;24.80;96.70;;;;;;5052045;28;20109;-80
2022/05/28 04:41:56;;;;;;;13.77;3.88;;;24.80;96.70;;;;;;5055759;28;20498;-80
2022/05/28 04:44:24;;;;;;;12.82;3.78;;;24.80;96.70;;;;;;5051286;28;20068;-80
2022/05/28 04:46:52;;;;;;;15.18;4.53;;;24.70;96.70;;;;;;5054207;28;20128;-80
2022/05/28 04:49:21;;;;;;;14.52;4.15;;;24.50;96.70;;;;;;5053275;28;20072;-80
2022/05/28 04:51:49;;;;;;;14.73;4.97;;;24.30;96.70;;;;;;5061308;28;20044;-80
2022/05/28 04:54:17;;;;;;;9.77;3.90;;;24.40;96.70;;;;;;5057146;28;20052;-80
2022/05/28 04:56:46;;;;;;;9.15;3.67;;;24.40;96.70;;;;;;5054351;28;20143;-80
2022/05/28 04:59:15;;;;;;;15.05;4.13;;;24.40;96.70;;;;;;5052462;28;20045;-79
2022/05/28 05:01:43;;;;;;;12.32;3.40;;;24.50;96.70;;;;;;5055714;28;20065;-80
2022/05/28 05:04:12;;;;;;;9.95;3.50;;;24.50;96.70;;;;;;5052377;28;20601;-79
2022/05/28 05:06:46;;;;;;;9.73;3.90;;;24.40;96.70;;;;;;5050507;28;20051;-79
2022/05/28 05:09:14;;;;;;;14.07;4.25;;;24.60;96.70;;;;;;5052255;28;20094;-79
2022/05/28 05:11:42;;;;;;;9.85;4.28;;;24.60;96.70;;;;;;5052218;28;20047;-79
2022/05/28 05:14:10;;;;;;;12.43;4.10;;;24.60;96.70;;;;;;5053327;28;20041;-79
2022/05/28 05:16:40;;;;;;;15.02;4.60;;;24.60;96.70;;;;;;5060450;28;20503;-80
2022/05/28 05:19:08;;;;;;;12.43;5.50;;;24.60;96.70;;;;;;5055738;28;20079;-80
2022/05/28 05:21:36;;;;;;;12.50;5.15;;;24.60;96.70;;;;;;5051054;28;20482;-79
2022/05/28 05:24:05;;;;;;;14.40;6.05;;;24.60;96.70;;;;;;5056777;28;20043;-80
2022/05/28 05:26:33;;;;;;;16.13;7.40;;;24.60;96.70;;;;;;5048417;28;20587;-80
2022/05/28 05:29:01;;;;;;;14.43;5.25;;;24.50;96.70;;;;;;5052119;28;20040;-79
2022/05/28 05:31:30;;;;;;;14.88;5.25;;;24.50;96.70;;;;;;5053704;28;20522;-83
2022/05/28 05:33:59;;;;;;;12.77;4.57;;;24.60;96.70;;;;;;5048552;28;20723;-86
2022/05/28 05:36:27;;;;;;;13.48;4.82;;;24.70;96.70;;;;;;5043753;28;20132;-81
2022/05/28 05:38:55;;;;;;;16.05;5.00;;;24.80;96.70;;;;;;5057458;28;20045;-78
2022/05/28 05:41:24;;;;;;;12.95;4.32;;;24.80;96.70;;;;;;5054517;28;20048;-79
2022/05/28 05:43:53;;;;;;;12.57;4.60;;;24.70;96.70;;;;;;5035101;28;20049;-79
2022/05/28 05:46:21;;;;;;;17.98;5.15;;;24.60;96.70;;;;;;5057224;28;20072;-79
2022/05/28 05:48:49;;;;;;;10.80;3.92;;;24.60;96.70;;;;;;5057375;28;20045;-79
2022/05/28 05:51:19;;;;;;;15.60;4.65;;;24.50;96.70;;;;;;5050325;28;20036;-78
2022/05/28 05:53:47;;;;;;;11.57;4.72;;;24.40;96.70;;;;;;5051066;28;20040;-78
2022/05/28 05:56:15;;;;;;;9.65;4.10;;;24.50;96.70;;;;;;5056513;28;20441;-78
2022/05/28 05:58:43;;;;;;;10.43;4.50;;;24.40;96.70;;;;;;5054486;28;20036;-82
2022/05/28 06:01:11;;;;;;;12.10;4.88;;;24.50;96.70;;;;;;5053786;28;20140;-78
2022/05/28 06:03:44;;;;;;;12.20;4.70;;;24.50;96.70;;;;;;5053875;28;20045;-79
2022/05/28 06:06:15;;;;;;;13.75;5.43;;;24.60;96.70;;;;;;5058549;28;20098;-79
2022/05/28 06:08:46;;;;;;;18.08;5.68;;;24.60;96.70;;;;;;5050474;28;20045;-79
2022/05/28 06:11:14;;;;;;;17.55;6.55;;;24.60;96.70;;;;;;5049464;28;20044;-79
2022/05/28 06:13:42;;;;;;;13.63;6.18;;;24.50;96.70;;;;;;5057009;28;20063;-79
2022/05/28 06:16:11;;;;;;;14.63;6.30;;;24.70;96.70;;;;;;5047308;28;20048;-79
2022/05/28 06:18:42;;;;;;;17.35;6.93;;;24.70;96.70;;;;;;5052287;28;20398;-79
2022/05/28 06:21:10;;;;;;;15.25;7.07;;;24.90;96.70;;;;;;5033568;28;20045;-79
2022/05/28 06:23:41;;;;;;;21.25;6.88;;;25.00;96.70;;;;;;5056021;28;20157;-81
2022/05/28 06:26:11;;;;;;;18.33;7.07;;;25.10;96.70;;;;;;5054374;28;20056;-79
2022/05/28 06:28:41;;;;;;;16.33;6.85;;;25.10;96.70;;;;;;5059824;28;20068;-79
2022/05/28 06:31:10;;;;;;;16.08;6.53;;;25.20;96.70;;;;;;5057890;28;20560;-79
2022/05/28 06:33:40;;;;;;;15.70;5.05;;;25.20;96.70;;;;;;5056682;28;20051;-79
2022/05/28 06:36:11;;;;;;;13.20;5.07;;;25.30;96.70;;;;;;5047790;28;20510;-79
2022/05/28 06:38:40;;;;;;;16.75;5.07;;;25.30;96.70;;;;;;5055398;28;20106;-79
2022/05/28 06:41:11;;;;;;;17.38;5.82;;;25.20;96.70;;;;;;5054353;28;20046;-79
2022/05/28 06:43:40;;;;;;;10.70;4.80;;;25.30;96.70;;;;;;5058695;28;20044;-78
2022/05/28 06:46:09;;;;;;;16.17;6.25;;;25.30;96.70;;;;;;5044615;28;20713;-79
2022/05/28 06:48:39;;;;;;;16.30;5.40;;;25.40;96.70;;;;;;5061223;28;20049;-80
2022/05/28 06:51:07;;;;;;;19.65;7.55;;;25.30;96.70;;;;;;5051018;28;20727;-84
2022/05/28 06:53:38;;;;;;;28.58;8.70;;;25.40;96.70;;;;;;5035335;28;20053;-79
2022/05/28 06:56:07;;;;;;;18.30;7.40;;;25.50;96.70;;;;;;5051865;28;20171;-79
2022/05/28 06:58:37;;;;;;;14.82;6.03;;;25.70;96.70;;;;;;5057024;28;20560;-79
2022/05/28 07:01:07;;;;;;;20.08;6.38;;;25.60;96.70;;;;;;5059266;28;20071;-79
2022/05/28 07:03:36;;;;;;;14.00;5.50;;;25.70;96.70;;;;;;5058815;28;20037;-79
2022/05/28 07:06:04;;;;;;;16.90;5.40;;;25.80;96.70;;;;;;5062858;28;20044;-79
2022/05/28 07:08:32;;;;;;;13.20;5.30;;;25.90;96.70;;;;;;5054789;28;20033;-79
2022/05/28 07:11:02;;;;;;;12.93;5.55;;;26.00;96.70;;;;;;5053061;28;20072;-79
2022/05/28 07:13:30;;;;;;;15.13;5.70;;;26.00;96.70;;;;;;5053127;28;20065;-77
2022/05/28 07:15:59;;;;;;;12.65;4.85;;;26.00;96.70;;;;;;5057112;28;20526;-77
2022/05/28 07:18:28;;;;;;;12.77;4.50;;;26.00;96.70;;;;;;5038947;28;20057;-78
2022/05/28 07:20:56;;;;;;;9.90;4.43;;;26.00;96.70;;;;;;5054074;28;20053;-77
2022/05/28 07:23:26;;;;;;;11.27;4.78;;;25.90;96.70;;;;;;5057932;28;21049;-77
2022/05/28 07:25:59;;;;;;;21.58;8.02;;;25.90;96.70;;;;;;5056488;28;20406;-79
2022/05/28 07:28:33;;;;;;;24.70;5.88;;;26.00;96.70;;;;;;5057071;28;20512;-78
2022/05/28 07:31:05;;;;;;;13.60;5.13;;;26.10;96.70;;;;;;5051603;28;20055;-78
2022/05/28 07:33:35;;;;;;;11.80;5.45;;;26.20;96.70;;;;;;5055117;28;20399;-79
2022/05/28 07:36:06;;;;;;;15.85;6.00;;;26.30;96.70;;;;;;5054823;28;20053;-79
2022/05/28 07:38:35;;;;;;;12.45;5.18;;;26.40;96.70;;;;;;5049636;28;20048;-79
2022/05/28 07:41:05;;;;;;;16.90;5.15;;;26.50;96.70;;;;;;5055843;28;20471;-79
2022/05/28 07:43:35;;;;;;;13.40;5.03;;;26.50;96.70;;;;;;5053970;28;20180;-79
2022/05/28 07:46:10;;;;;;;15.10;5.28;;;26.60;96.70;;;;;;5043464;28;20130;-79
2022/05/28 07:48:39;;;;;;;22.38;6.53;;;26.60;96.70;;;;;;5054128;28;20055;-78
2022/05/28 07:51:07;;;;;;;15.23;5.35;;;26.70;96.70;;;;;;5055761;28;20155;-79
2022/05/28 07:53:37;;;;;;;18.10;5.45;;;26.80;96.70;;;;;;5054971;28;20457;-79
2022/05/28 07:56:06;;;;;;;11.40;4.78;;;26.80;96.70;;;;;;5054112;28;20041;-79
2022/05/28 07:58:40;;;;;;;13.70;4.50;;;26.90;96.70;;;;;;5055154;28;20052;-79
2022/05/28 08:01:18;;;;;;;16.92;5.40;;;27.10;96.70;;;;;;5037282;28;20040;-79
2022/05/28 08:03:47;;;;;;;15.45;4.68;;;27.10;96.70;;;;;;5056776;28;20494;-79
2022/05/28 08:06:15;;;;;;;14.38;4.57;;;27.10;96.70;;;;;;5056606;28;20395;-79
2022/05/28 08:08:44;;;;;;;12.25;4.13;;;27.10;96.70;;;;;;5054958;28;20052;-78
2022/05/28 08:11:12;;;;;;;9.80;3.72;;;27.20;96.70;;;;;;5055323;28;20058;-79
2022/05/28 08:13:40;;;;;;;14.70;4.40;;;27.30;96.70;;;;;;5049326;28;20536;-78
2022/05/28 08:16:13;;;;;;;11.45;4.13;;;27.30;96.70;;;;;;5049136;28;20052;-84
2022/05/28 08:18:42;;;;;;;14.90;4.43;;;27.30;96.70;;;;;;5068440;28;20040;-85
2022/05/28 08:23:56;;;;;;;;;;;27.50;96.70;;;;;;5061824;28;20063;-86
2022/05/28 08:26:25;;;;;;;12.43;3.33;;;27.50;96.70;;;;;;5066456;28;19924;-85
2022/05/28 08:28:54;;;;;;;11.57;3.28;;;27.50;96.70;;;;;;5064783;28;20568;-85
2022/05/28 08:31:27;;;;;;;13.30;4.10;;;27.60;96.70;;;;;;5062379;28;20087;-86
2022/05/28 08:33:56;;;;;;;11.38;3.58;;;27.70;96.70;;;;;;5051310;28;20048;-85
2022/05/28 08:36:24;;;;;;;14.00;4.25;;;27.80;96.70;;;;;;5067138;28;20076;-84
2022/05/28 08:38:53;;;;;;;15.88;3.67;;;27.80;96.70;;;;;;5061436;28;20048;-85
2022/05/28 08:41:23;;;;;;;21.42;13.80;;;27.80;96.70;;;;;;5066812;28;20068;-87
2022/05/28 08:43:59;;;;;;;19.58;12.50;;;27.90;96.70;;;;;;5062687;28;20134;-87
2022/05/28 08:46:33;;;;;;;12.23;4.63;;;28.00;96.70;;;;;;5064377;28;20051;-86
2022/05/28 08:49:04;;;;;;;14.50;4.63;;;28.10;96.70;;;;;;5051985;28;20056;-86
2022/05/28 08:51:38;;;;;;;12.80;4.53;;;28.30;96.70;;;;;;5049023;28;20403;-86
2022/05/28 08:54:13;;;;;;;12.98;4.45;;;28.40;96.70;;;;;;5060746;28;20060;-86
2022/05/28 08:56:43;;;;;;;29.20;19.87;;;28.30;96.70;;;;;;5063376;28;20048;-87
2022/05/28 08:59:16;;;;;;;18.73;9.73;;;28.20;96.70;;;;;;5051244;28;20930;-86
2022/05/28 09:01:46;;;;;;;16.70;7.45;;;28.40;96.70;;;;;;5048870;28;20106;-87
2022/05/28 09:04:17;;;;;;;12.80;4.90;;;28.40;96.70;;;;;;5066820;28;20123;-86
2022/05/28 09:06:51;;;;;;;15.18;4.65;;;28.50;96.70;;;;;;5058824;28;20060;-87
2022/05/28 09:09:29;;;;;;;9.23;3.53;;;28.60;96.70;;;;;;5066388;28;20588;-87
2022/05/28 09:12:02;;;;;;;15.82;4.07;;;28.60;96.70;;;;;;5068601;28;20044;-85
2022/05/28 09:14:32;;;;;;;15.77;4.65;;;28.70;96.70;;;;;;5058866;28;20043;-85
2022/05/28 09:17:04;;;;;;;13.73;4.85;;;28.90;96.70;;;;;;5055074;28;20072;-86
2022/05/28 09:19:36;;;;;;;13.75;4.22;;;29.10;96.70;;;;;;5066145;28;20074;-86
2022/05/28 09:22:05;;;;;;;19.00;5.35;;;29.10;96.70;;;;;;5065371;28;20143;-84
2022/05/28 09:24:33;;;;;;;9.60;3.67;;;29.10;96.70;;;;;;5067202;28;20052;-86
2022/05/28 09:27:13;;;;;;;13.15;3.60;;;29.10;96.70;;;;;;5055473;28;20123;-86
2022/05/28 09:30:04;;;;;;;16.60;4.35;;;29.30;96.70;;;;;;5067275;28;20121;-86
2022/05/28 09:32:52;;;;;;;15.23;4.43;;;29.30;96.70;;;;;;5058812;28;20052;-85
2022/05/28 09:35:54;;;;;;;13.45;3.80;;;29.40;96.70;;;;;;5043224;28;20056;-82
2022/05/28 09:38:30;;;;;;;15.45;4.40;;;29.40;96.70;;;;;;5042031;28;20486;-87
2022/05/28 09:41:13;;;;;;;11.98;3.53;;;29.50;96.70;;;;;;5043546;28;20092;-85
2022/05/28 09:43:52;;;;;;;19.00;4.63;;;29.70;96.70;;;;;;5045220;28;20065;-87
2022/05/28 09:46:27;;;;;;;18.25;5.13;;;29.80;96.70;;;;;;5035841;28;20041;-86
2022/05/28 09:49:01;;;;;;;13.70;3.83;;;30.00;96.70;;;;;;5029247;28;20122;-84
2022/05/28 09:51:31;;;;;;;15.50;3.78;;;29.90;96.70;;;;;;5034790;28;20041;-82
2022/05/28 09:54:16;;;;;;;21.83;13.65;;;29.90;96.70;;;;;;5044987;28;20045;-85
2022/05/28 09:56:52;;;;;;;19.40;6.05;;;29.80;96.70;;;;;;5046809;28;20033;-85
2022/05/28 09:59:49;;;;;;;9.93;4.43;;;29.90;96.70;;;;;;5023265;28;20041;-83
2022/05/28 10:02:20;;;;;;;14.48;4.53;;;30.00;96.70;;;;;;5037468;28;20048;-85
2022/05/28 10:04:55;;;;;;;14.38;4.68;;;30.00;96.70;;;;;;5039461;28;20044;-83
2022/05/28 10:07:31;;;;;;;16.27;4.35;;;30.20;96.70;;;;;;5033806;28;20037;-86
2022/05/28 10:10:35;;;;;;;12.75;4.07;;;30.30;96.70;;;;;;5022856;28;20049;-78
2022/05/28 10:13:09;;;;;;;12.95;3.95;;;30.30;96.70;;;;;;5030582;28;20085;-77
2022/05/28 10:15:40;;;;;;;12.88;4.25;;;30.50;96.70;;;;;;5013281;28;20064;-78
2022/05/28 10:18:11;;;;;;;14.30;3.90;;;30.50;96.70;;;;;;5032954;28;20092;-78
2022/05/28 10:20:41;;;;;;;15.70;4.80;;;30.60;96.10;;;;;;5036943;28;20046;-77
2022/05/28 10:23:15;;;;;;;16.77;5.15;;;30.80;95.00;;;;;;5036638;28;20069;-81
2022/05/28 10:25:50;;;;;;;12.00;3.90;;;31.00;95.20;;;;;;5039590;28;20037;-81
2022/05/28 10:28:28;;;;;;;14.95;4.68;;;31.10;94.50;;;;;;5016679;28;20094;-76
2022/05/28 10:30:57;;;;;;;13.43;4.40;;;31.20;92.40;;;;;;5035043;28;20033;-79
2022/05/28 10:33:29;;;;;;;14.68;3.95;;;31.20;93.50;;;;;;5032953;28;20075;-80
2022/05/28 10:36:10;;;;;;;13.35;3.80;;;31.40;93.00;;;;;;5029615;28;20053;-78
2022/05/28 10:38:39;;;;;;;10.65;3.53;;;31.20;93.00;;;;;;5027163;28;20073;-78
2022/05/28 10:41:18;;;;;;;12.23;3.70;;;31.30;93.10;;;;;;5030276;28;20578;-78
2022/05/28 10:43:47;;;;;;;13.88;3.63;;;31.50;91.50;;;;;;5033961;28;20049;-78
2022/05/28 10:46:25;;;;;;;15.73;4.03;;;31.70;91.20;;;;;;5040127;28;21048;-79
2022/05/28 10:49:07;;;;;;;18.08;4.32;;;31.90;87.20;;;;;;5028415;28;20056;-79
2022/05/28 10:51:52;;;;;;;14.43;4.35;;;32.00;88.70;;;;;;5032790;28;20044;-82
2022/05/28 10:54:30;;;;;;;13.07;4.00;;;32.20;87.80;;;;;;5036307;28;20041;-82
2022/05/28 10:57:10;;;;;;;15.57;3.63;;;32.40;88.50;;;;;;5029148;28;20069;-80
2022/05/28 10:59:54;;;;;;;12.50;3.42;;;32.50;87.80;;;;;;5024621;28;20419;-82
2022/05/28 11:02:58;;;;;;;15.35;4.15;;;32.50;83.00;;;;;;5036093;28;20040;-79
2022/05/28 11:05:52;;;;;;;13.15;3.47;;;32.60;84.60;;;;;;5030224;28;20077;-78
2022/05/28 11:08:32;;;;;;;11.65;3.55;;;32.80;84.90;;;;;;5019741;28;20056;-80
2022/05/28 11:11:13;;;;;;;17.20;5.20;;;32.80;84.90;;;;;;5034241;28;20106;-79
2022/05/28 11:14:13;;;;;;;21.52;4.78;;;32.90;85.80;;;;;;5037545;28;20052;-80
2022/05/28 11:16:53;;;;;;;16.00;3.60;;;33.10;85.40;;;;;;5019304;28;20045;-79
2022/05/28 11:19:35;;;;;;;13.68;3.45;;;33.30;83.50;;;;;;5040405;28;20064;-80
2022/05/28 11:22:41;;;;;;;10.98;3.38;;;33.30;82.00;;;;;;5032674;28;20087;-80
2022/05/28 11:25:15;;;;;;;13.23;3.65;;;33.40;82.60;;;;;;4987145;28;20053;-81
2022/05/28 11:27:56;;;;;;;17.40;3.72;;;33.40;83.10;;;;;;5031539;28;20573;-81
2022/05/28 11:30:31;;;;;;;14.85;3.92;;;33.60;83.30;;;;;;5037337;28;20072;-80
2022/05/28 11:33:02;;;;;;;12.73;3.90;;;33.80;82.80;;;;;;5043101;28;20045;-81
2022/05/28 11:35:38;;;;;;;13.93;3.25;;;33.90;80.90;;;;;;5035278;28;20092;-79
2022/05/28 11:38:14;;;;;;;17.73;5.40;;;33.90;80.70;;;;;;5037461;28;20594;-80
2022/05/28 11:40:54;;;;;;;10.63;3.65;;;33.90;80.80;;;;;;5039887;28;20320;-79
2022/05/28 11:43:26;;;;;;;16.00;3.67;;;33.90;76.60;;;;;;5037085;28;20556;-79
2022/05/28 11:46:00;;;;;;;11.25;3.33;;;34.10;77.70;;;;;;5016441;28;20061;-79
2022/05/28 11:51:40;;;;;;;16.98;4.78;;;34.20;77.30;;;;;;5034993;28;20069;-79
2022/05/28 11:54:13;;;;;;;12.43;3.47;;;34.30;78.10;;;;;;5029811;28;20088;-78
2022/05/28 11:56:46;;;;;;;15.25;4.53;;;34.30;78.70;;;;;;5037683;28;20126;-79
2022/05/28 11:59:17;;;;;;;15.82;3.45;;;34.30;80.10;;;;;;5036927;28;20059;-81
2022/05/28 12:01:49;;;;;;;13.07;3.92;;;34.50;79.40;;;;;;5038372;28;20053;-78
2022/05/28 12:04:18;;;;;;;14.20;3.65;;;34.60;81.50;;;;;;5038165;28;20049;-79
2022/05/28 12:07:02;;;;;;;12.35;3.55;;;34.70;79.70;;;;;;5034504;28;20045;-80
2022/05/28 12:09:33;;;;;;;10.65;4.45;;;34.50;80.40;;;;;;5033548;28;20102;-79
2022/05/28 12:12:14;;;;;;;13.20;4.00;;;34.60;79.80;;;;;;5036753;28;20518;-80
2022/05/28 12:14:47;;;;;;;11.45;3.85;;;34.70;80.20;;;;;;5032942;28;20049;-82
2022/05/28 12:17:27;;;;;;;14.88;4.10;;;34.60;81.20;;;;;;5033747;28;20064;-79
2022/05/28 12:19:58;;;;;;;14.77;4.43;;;34.70;82.20;;;;;;5034928;28;20041;-81
2022/05/28 12:22:30;;;;;;;14.43;3.85;;;34.70;81.60;;;;;;5041088;28;20045;-79
2022/05/28 12:25:05;;;;;;;14.18;4.15;;;34.60;81.10;;;;;;5039710;28;20045;-80
2022/05/28 12:27:42;;;;;;;14.43;4.20;;;34.70;81.50;;;;;;5030634;28;20121;-79
2022/05/28 12:30:28;;;;;;;15.00;3.88;;;34.70;80.20;;;;;;5033898;28;20045;-83
2022/05/28 12:32:58;;;;;;;16.67;4.35;;;34.70;80.50;;;;;;5017506;28;20132;-83
2022/05/28 12:35:38;;;;;;;10.73;3.70;;;34.90;80.10;;;;;;5041160;28;20049;-81
2022/05/28 12:38:17;;;;;;;9.63;3.72;;;35.00;80.60;;;;;;5035229;28;20697;-81
2022/05/28 12:40:54;;;;;;;16.30;4.18;;;34.90;78.10;;;;;;5051211;28;20045;-81
2022/05/28 12:43:31;;;;;;;16.23;5.10;;;34.90;78.20;;;;;;5031136;28;20045;-81
2022/05/28 12:46:13;;;;;;;11.13;3.92;;;34.90;79.30;;;;;;5035414;28;20111;-81
2022/05/28 12:48:42;;;;;;;10.20;3.58;;;34.90;79.30;;;;;;5036968;28;20050;-82
2022/05/28 12:51:26;;;;;;;13.20;3.95;;;34.80;77.90;;;;;;5037921;28;20285;-82
2022/05/28 12:54:05;;;;;;;21.60;3.67;;;34.90;79.00;;;;;;5045347;28;20115;-85
2022/05/28 12:56:43;;;;;;;15.95;4.43;;;34.90;78.40;;;;;;5046580;28;20107;-86
2022/05/28 12:59:27;;;;;;;11.80;4.18;;;35.00;78.60;;;;;;5020766;28;20045;-82
2022/05/28 13:01:58;;;;;;;17.83;5.30;;;35.10;84.40;;;;;;5038044;28;20051;-80
2022/05/28 13:04:41;;;;;;;15.15;4.57;;;34.90;86.10;;;;;;5036093;28;20060;-82
2022/05/28 13:07:22;;;;;;;20.08;4.93;;;34.80;87.20;;;;;;5035132;28;20135;-80
2022/05/28 13:09:59;;;;;;;14.50;4.47;;;34.70;87.20;;;;;;5023574;28;20049;-81